sensor_id;sensor_type;location;lat;lon;timestamp;P1;durP1;ratioP1;P2;durP2;ratioP2
69491;SDS011;56692;52.016;4.356;2023-04-09T00:01:52;2.93;;;1.40;;
69491;SDS011;56692;52.016;4.356;2023-04-09T00:04:18;3.90;;;1.52;;
69491;SDS011;56692;52.016;4.356;2023-04-09T00:06:44;3.00;;;1.45;;
69491;SDS011;56692;52.016;4.356;2023-04-09T00:09:10;3.27;;;1.40;;
69491;SDS011;56692;52.016;4.356;2023-04-09T00:11:35;3.90;;;1.88;;
69491;SDS011;56692;52.016;4.356;2023-04-09T00:14:01;3.07;;;1.27;;
69491;SDS011;56692;52.016;4.356;2023-04-09T00:16:26;3.63;;;1.50;;
69491;SDS011;56692;52.016;4.356;2023-04-09T00:18:52;3.22;;;1.50;;
69491;SDS011;56692;52.016;4.356;2023-04-09T00:21:18;2.80;;;1.23;;
69491;SDS011;56692;52.016;4.356;2023-04-09T00:23:44;4.13;;;1.60;;
69491;SDS011;56692;52.016;4.356;2023-04-09T00:26:10;3.43;;;1.67;;
69491;SDS011;56692;52.016;4.356;2023-04-09T00:28:36;3.00;;;1.40;;
69491;SDS011;56692;52.016;4.356;2023-04-09T00:31:01;2.72;;;1.20;;
69491;SDS011;56692;52.016;4.356;2023-04-09T00:33:27;3.03;;;1.33;;
69491;SDS011;56692;52.016;4.356;2023-04-09T00:35:53;3.70;;;1.55;;
69491;SDS011;56692;52.016;4.356;2023-04-09T00:38:18;3.03;;;1.50;;
69491;SDS011;56692;52.016;4.356;2023-04-09T00:40:47;3.85;;;1.67;;
69491;SDS011;56692;52.016;4.356;2023-04-09T00:43:14;3.13;;;1.67;;
69491;SDS011;56692;52.016;4.356;2023-04-09T00:45:41;2.88;;;1.50;;
69491;SDS011;56692;52.016;4.356;2023-04-09T00:48:08;2.97;;;1.55;;
69491;SDS011;56692;52.016;4.356;2023-04-09T00:50:34;2.80;;;1.50;;
69491;SDS011;56692;52.016;4.356;2023-04-09T00:53:00;2.92;;;1.40;;
69491;SDS011;56692;52.016;4.356;2023-04-09T00:55:26;4.15;;;1.65;;
69491;SDS011;56692;52.016;4.356;2023-04-09T00:57:53;3.85;;;1.73;;
69491;SDS011;56692;52.016;4.356;2023-04-09T01:00:18;3.40;;;1.87;;
69491;SDS011;56692;52.016;4.356;2023-04-09T01:02:44;3.65;;;1.95;;
69491;SDS011;56692;52.016;4.356;2023-04-09T01:05:10;3.20;;;2.00;;
69491;SDS011;56692;52.016;4.356;2023-04-09T01:15:52;3.63;;;1.87;;
69491;SDS011;56692;52.016;4.356;2023-04-09T01:18:21;2.53;;;1.23;;
69491;SDS011;56692;52.016;4.356;2023-04-09T01:20:49;3.35;;;1.75;;
69491;SDS011;56692;52.016;4.356;2023-04-09T01:26:20;4.53;;;2.15;;
69491;SDS011;56692;52.016;4.356;2023-04-09T01:29:07;3.03;;;1.63;;
69491;SDS011;56692;52.016;4.356;2023-04-09T01:31:35;4.00;;;1.58;;
69491;SDS011;56692;52.016;4.356;2023-04-09T01:34:03;4.38;;;1.92;;
69491;SDS011;56692;52.016;4.356;2023-04-09T01:36:30;2.65;;;1.40;;
69491;SDS011;56692;52.016;4.356;2023-04-09T01:38:59;3.63;;;1.77;;
69491;SDS011;56692;52.016;4.356;2023-04-09T01:41:25;2.90;;;1.40;;
69491;SDS011;56692;52.016;4.356;2023-04-09T01:43:52;2.90;;;1.50;;
69491;SDS011;56692;52.016;4.356;2023-04-09T01:46:19;3.40;;;1.80;;
69491;SDS011;56692;52.016;4.356;2023-04-09T01:48:46;3.40;;;1.60;;
69491;SDS011;56692;52.016;4.356;2023-04-09T01:51:13;3.15;;;1.80;;
69491;SDS011;56692;52.016;4.356;2023-04-09T01:53:41;3.37;;;1.73;;
69491;SDS011;56692;52.016;4.356;2023-04-09T01:56:07;3.90;;;2.15;;
69491;SDS011;56692;52.016;4.356;2023-04-09T01:58:33;4.35;;;1.92;;
69491;SDS011;56692;52.016;4.356;2023-04-09T02:01:11;3.70;;;2.42;;
69491;SDS011;56692;52.016;4.356;2023-04-09T02:04:01;3.40;;;1.98;;
69491;SDS011;56692;52.016;4.356;2023-04-09T02:06:33;3.37;;;1.97;;
69491;SDS011;56692;52.016;4.356;2023-04-09T02:09:03;3.50;;;1.80;;
69491;SDS011;56692;52.016;4.356;2023-04-09T02:11:32;3.22;;;1.95;;
69491;SDS011;56692;52.016;4.356;2023-04-09T02:14:01;3.55;;;1.60;;
69491;SDS011;56692;52.016;4.356;2023-04-09T02:16:30;3.33;;;1.65;;
69491;SDS011;56692;52.016;4.356;2023-04-09T02:18:56;3.47;;;1.97;;
69491;SDS011;56692;52.016;4.356;2023-04-09T02:21:25;3.15;;;1.77;;
69491;SDS011;56692;52.016;4.356;2023-04-09T02:23:52;4.55;;;2.80;;
69491;SDS011;56692;52.016;4.356;2023-04-09T02:26:19;3.58;;;1.45;;
69491;SDS011;56692;52.016;4.356;2023-04-09T02:28:45;4.43;;;2.03;;
69491;SDS011;56692;52.016;4.356;2023-04-09T02:31:11;3.40;;;1.67;;
69491;SDS011;56692;52.016;4.356;2023-04-09T02:33:37;3.75;;;2.30;;
69491;SDS011;56692;52.016;4.356;2023-04-09T02:36:03;3.70;;;1.63;;
69491;SDS011;56692;52.016;4.356;2023-04-09T02:38:30;4.38;;;1.90;;
69491;SDS011;56692;52.016;4.356;2023-04-09T02:40:55;4.10;;;2.50;;
69491;SDS011;56692;52.016;4.356;2023-04-09T02:43:21;3.37;;;1.43;;
69491;SDS011;56692;52.016;4.356;2023-04-09T02:45:47;3.33;;;1.63;;
69491;SDS011;56692;52.016;4.356;2023-04-09T02:48:12;2.58;;;1.58;;
69491;SDS011;56692;52.016;4.356;2023-04-09T02:50:40;3.30;;;1.60;;
69491;SDS011;56692;52.016;4.356;2023-04-09T02:53:05;2.60;;;1.35;;
69491;SDS011;56692;52.016;4.356;2023-04-09T02:55:31;3.17;;;1.80;;
69491;SDS011;56692;52.016;4.356;2023-04-09T02:57:57;3.97;;;1.98;;
69491;SDS011;56692;52.016;4.356;2023-04-09T03:00:22;3.20;;;1.73;;
69491;SDS011;56692;52.016;4.356;2023-04-09T03:02:48;4.40;;;1.70;;
69491;SDS011;56692;52.016;4.356;2023-04-09T03:05:14;5.13;;;2.50;;
69491;SDS011;56692;52.016;4.356;2023-04-09T03:07:40;3.53;;;2.08;;
69491;SDS011;56692;52.016;4.356;2023-04-09T03:10:06;3.28;;;1.80;;
69491;SDS011;56692;52.016;4.356;2023-04-09T03:12:32;4.18;;;2.20;;
69491;SDS011;56692;52.016;4.356;2023-04-09T03:14:58;3.90;;;2.43;;
69491;SDS011;56692;52.016;4.356;2023-04-09T03:17:23;3.20;;;1.67;;
69491;SDS011;56692;52.016;4.356;2023-04-09T03:19:51;4.97;;;2.40;;
69491;SDS011;56692;52.016;4.356;2023-04-09T03:22:17;2.60;;;1.60;;
69491;SDS011;56692;52.016;4.356;2023-04-09T03:24:43;3.42;;;1.77;;
69491;SDS011;56692;52.016;4.356;2023-04-09T03:27:09;3.30;;;2.03;;
69491;SDS011;56692;52.016;4.356;2023-04-09T03:29:34;3.38;;;1.73;;
69491;SDS011;56692;52.016;4.356;2023-04-09T03:32:00;3.73;;;2.10;;
69491;SDS011;56692;52.016;4.356;2023-04-09T03:34:26;3.22;;;1.63;;
69491;SDS011;56692;52.016;4.356;2023-04-09T03:36:51;2.93;;;1.67;;
69491;SDS011;56692;52.016;4.356;2023-04-09T03:39:17;4.45;;;2.15;;
69491;SDS011;56692;52.016;4.356;2023-04-09T03:41:43;3.90;;;2.20;;
69491;SDS011;56692;52.016;4.356;2023-04-09T03:44:08;3.60;;;1.67;;
69491;SDS011;56692;52.016;4.356;2023-04-09T03:46:34;4.97;;;1.93;;
69491;SDS011;56692;52.016;4.356;2023-04-09T03:49:00;3.53;;;1.70;;
69491;SDS011;56692;52.016;4.356;2023-04-09T03:51:26;4.13;;;2.13;;
69491;SDS011;56692;52.016;4.356;2023-04-09T03:53:51;3.03;;;1.83;;
69491;SDS011;56692;52.016;4.356;2023-04-09T03:56:17;3.50;;;1.90;;
69491;SDS011;56692;52.016;4.356;2023-04-09T03:58:43;3.57;;;2.03;;
69491;SDS011;56692;52.016;4.356;2023-04-09T04:01:08;3.92;;;2.00;;
69491;SDS011;56692;52.016;4.356;2023-04-09T04:03:35;3.87;;;1.90;;
69491;SDS011;56692;52.016;4.356;2023-04-09T04:06:01;3.75;;;2.13;;
69491;SDS011;56692;52.016;4.356;2023-04-09T04:08:28;3.45;;;2.05;;
69491;SDS011;56692;52.016;4.356;2023-04-09T04:10:53;3.30;;;1.85;;
69491;SDS011;56692;52.016;4.356;2023-04-09T04:13:19;3.50;;;2.10;;
69491;SDS011;56692;52.016;4.356;2023-04-09T04:15:45;4.05;;;2.13;;
69491;SDS011;56692;52.016;4.356;2023-04-09T04:18:11;3.30;;;1.60;;
69491;SDS011;56692;52.016;4.356;2023-04-09T04:20:37;3.73;;;2.10;;
69491;SDS011;56692;52.016;4.356;2023-04-09T04:23:04;3.15;;;1.92;;
69491;SDS011;56692;52.016;4.356;2023-04-09T04:25:30;3.10;;;1.80;;
69491;SDS011;56692;52.016;4.356;2023-04-09T04:27:56;3.75;;;2.10;;
69491;SDS011;56692;52.016;4.356;2023-04-09T04:30:22;3.23;;;1.47;;
69491;SDS011;56692;52.016;4.356;2023-04-09T04:32:48;3.83;;;2.40;;
69491;SDS011;56692;52.016;4.356;2023-04-09T04:35:14;4.05;;;1.80;;
69491;SDS011;56692;52.016;4.356;2023-04-09T04:37:41;5.20;;;1.90;;
69491;SDS011;56692;52.016;4.356;2023-04-09T04:40:07;4.18;;;2.35;;
69491;SDS011;56692;52.016;4.356;2023-04-09T04:42:33;3.92;;;1.65;;
69491;SDS011;56692;52.016;4.356;2023-04-09T04:44:59;3.88;;;2.05;;
69491;SDS011;56692;52.016;4.356;2023-04-09T04:47:25;4.27;;;2.93;;
69491;SDS011;56692;52.016;4.356;2023-04-09T04:49:51;5.32;;;1.90;;
69491;SDS011;56692;52.016;4.356;2023-04-09T04:52:17;3.20;;;1.67;;
69491;SDS011;56692;52.016;4.356;2023-04-09T04:54:45;3.72;;;2.05;;
69491;SDS011;56692;52.016;4.356;2023-04-09T04:57:11;3.55;;;1.98;;
69491;SDS011;56692;52.016;4.356;2023-04-09T04:59:37;3.53;;;1.80;;
69491;SDS011;56692;52.016;4.356;2023-04-09T05:02:04;3.47;;;2.30;;
69491;SDS011;56692;52.016;4.356;2023-04-09T05:04:33;4.00;;;1.85;;
69491;SDS011;56692;52.016;4.356;2023-04-09T05:06:58;4.63;;;1.90;;
69491;SDS011;56692;52.016;4.356;2023-04-09T05:09:24;4.40;;;2.28;;
69491;SDS011;56692;52.016;4.356;2023-04-09T05:11:50;3.63;;;2.50;;
69491;SDS011;56692;52.016;4.356;2023-04-09T05:14:16;3.30;;;2.30;;
69491;SDS011;56692;52.016;4.356;2023-04-09T05:16:41;3.20;;;1.83;;
69491;SDS011;56692;52.016;4.356;2023-04-09T05:19:07;3.00;;;1.80;;
69491;SDS011;56692;52.016;4.356;2023-04-09T05:21:33;3.95;;;2.05;;
69491;SDS011;56692;52.016;4.356;2023-04-09T05:23:58;4.20;;;2.20;;
69491;SDS011;56692;52.016;4.356;2023-04-09T05:26:24;4.18;;;2.38;;
69491;SDS011;56692;52.016;4.356;2023-04-09T05:28:51;4.22;;;1.90;;
69491;SDS011;56692;52.016;4.356;2023-04-09T05:31:17;3.57;;;2.40;;
69491;SDS011;56692;52.016;4.356;2023-04-09T05:33:43;3.50;;;1.80;;
69491;SDS011;56692;52.016;4.356;2023-04-09T05:36:14;4.25;;;1.77;;
69491;SDS011;56692;52.016;4.356;2023-04-09T05:38:41;3.78;;;2.22;;
69491;SDS011;56692;52.016;4.356;2023-04-09T05:41:07;3.42;;;1.70;;
69491;SDS011;56692;52.016;4.356;2023-04-09T05:43:33;3.87;;;2.20;;
69491;SDS011;56692;52.016;4.356;2023-04-09T05:45:58;4.30;;;2.47;;
69491;SDS011;56692;52.016;4.356;2023-04-09T05:48:24;3.83;;;1.97;;
69491;SDS011;56692;52.016;4.356;2023-04-09T05:50:50;3.92;;;1.88;;
69491;SDS011;56692;52.016;4.356;2023-04-09T05:53:16;4.20;;;2.67;;
69491;SDS011;56692;52.016;4.356;2023-04-09T05:55:43;4.00;;;2.17;;
69491;SDS011;56692;52.016;4.356;2023-04-09T05:58:09;4.00;;;2.15;;
69491;SDS011;56692;52.016;4.356;2023-04-09T06:00:35;3.92;;;2.00;;
69491;SDS011;56692;52.016;4.356;2023-04-09T06:03:01;4.13;;;1.97;;
69491;SDS011;56692;52.016;4.356;2023-04-09T06:05:27;4.28;;;2.63;;
69491;SDS011;56692;52.016;4.356;2023-04-09T06:07:52;4.37;;;2.00;;
69491;SDS011;56692;52.016;4.356;2023-04-09T06:10:18;4.38;;;2.10;;
69491;SDS011;56692;52.016;4.356;2023-04-09T06:12:44;3.70;;;2.40;;
69491;SDS011;56692;52.016;4.356;2023-04-09T06:15:09;4.37;;;2.70;;
69491;SDS011;56692;52.016;4.356;2023-04-09T06:17:35;3.65;;;2.05;;
69491;SDS011;56692;52.016;4.356;2023-04-09T06:20:02;4.38;;;2.40;;
69491;SDS011;56692;52.016;4.356;2023-04-09T06:22:28;4.37;;;2.27;;
69491;SDS011;56692;52.016;4.356;2023-04-09T06:24:53;4.40;;;2.78;;
69491;SDS011;56692;52.016;4.356;2023-04-09T06:27:19;3.45;;;2.17;;
69491;SDS011;56692;52.016;4.356;2023-04-09T06:29:46;4.40;;;2.50;;
69491;SDS011;56692;52.016;4.356;2023-04-09T06:32:11;4.63;;;3.05;;
69491;SDS011;56692;52.016;4.356;2023-04-09T06:34:37;4.07;;;2.20;;
69491;SDS011;56692;52.016;4.356;2023-04-09T06:37:03;5.30;;;3.00;;
69491;SDS011;56692;52.016;4.356;2023-04-09T06:39:28;4.03;;;2.30;;
69491;SDS011;56692;52.016;4.356;2023-04-09T06:41:54;4.20;;;2.30;;
69491;SDS011;56692;52.016;4.356;2023-04-09T06:44:20;6.43;;;2.60;;
69491;SDS011;56692;52.016;4.356;2023-04-09T06:46:48;4.30;;;2.63;;
69491;SDS011;56692;52.016;4.356;2023-04-09T06:49:14;3.57;;;2.37;;
69491;SDS011;56692;52.016;4.356;2023-04-09T06:51:40;4.43;;;2.37;;
69491;SDS011;56692;52.016;4.356;2023-04-09T06:54:06;4.95;;;3.10;;
69491;SDS011;56692;52.016;4.356;2023-04-09T06:56:32;4.50;;;2.23;;
69491;SDS011;56692;52.016;4.356;2023-04-09T06:58:58;4.45;;;2.70;;
69491;SDS011;56692;52.016;4.356;2023-04-09T07:01:24;5.00;;;2.60;;
69491;SDS011;56692;52.016;4.356;2023-04-09T07:03:50;4.35;;;2.45;;
69491;SDS011;56692;52.016;4.356;2023-04-09T07:06:16;4.63;;;2.70;;
69491;SDS011;56692;52.016;4.356;2023-04-09T07:08:42;5.30;;;3.08;;
69491;SDS011;56692;52.016;4.356;2023-04-09T07:11:07;4.80;;;2.45;;
69491;SDS011;56692;52.016;4.356;2023-04-09T07:13:33;4.80;;;2.70;;
69491;SDS011;56692;52.016;4.356;2023-04-09T07:16:02;4.70;;;2.92;;
69491;SDS011;56692;52.016;4.356;2023-04-09T07:18:29;6.00;;;3.53;;
69491;SDS011;56692;52.016;4.356;2023-04-09T07:20:55;5.07;;;2.80;;
69491;SDS011;56692;52.016;4.356;2023-04-09T07:23:20;4.95;;;2.40;;
69491;SDS011;56692;52.016;4.356;2023-04-09T07:25:46;6.18;;;2.85;;
69491;SDS011;56692;52.016;4.356;2023-04-09T07:28:12;4.87;;;2.80;;
69491;SDS011;56692;52.016;4.356;2023-04-09T07:30:38;5.50;;;2.72;;
69491;SDS011;56692;52.016;4.356;2023-04-09T07:33:04;4.97;;;2.58;;
69491;SDS011;56692;52.016;4.356;2023-04-09T07:35:29;4.83;;;3.13;;
69491;SDS011;56692;52.016;4.356;2023-04-09T07:37:56;5.40;;;2.85;;
69491;SDS011;56692;52.016;4.356;2023-04-09T07:40:22;4.53;;;2.80;;
69491;SDS011;56692;52.016;4.356;2023-04-09T07:42:48;4.93;;;3.07;;
69491;SDS011;56692;52.016;4.356;2023-04-09T07:45:15;5.43;;;3.53;;
69491;SDS011;56692;52.016;4.356;2023-04-09T07:47:42;7.18;;;3.47;;
69491;SDS011;56692;52.016;4.356;2023-04-09T07:50:08;5.30;;;2.80;;
69491;SDS011;56692;52.016;4.356;2023-04-09T07:52:34;5.80;;;3.00;;
69491;SDS011;56692;52.016;4.356;2023-04-09T07:55:00;5.15;;;3.10;;
69491;SDS011;56692;52.016;4.356;2023-04-09T07:57:25;5.53;;;3.30;;
69491;SDS011;56692;52.016;4.356;2023-04-09T07:59:51;5.13;;;2.92;;
69491;SDS011;56692;52.016;4.356;2023-04-09T08:02:17;5.70;;;3.30;;
69491;SDS011;56692;52.016;4.356;2023-04-09T08:04:43;5.70;;;3.20;;
69491;SDS011;56692;52.016;4.356;2023-04-09T08:07:09;5.87;;;3.30;;
69491;SDS011;56692;52.016;4.356;2023-04-09T08:09:35;5.68;;;3.53;;
69491;SDS011;56692;52.016;4.356;2023-04-09T08:12:01;6.18;;;3.22;;
69491;SDS011;56692;52.016;4.356;2023-04-09T08:14:27;5.93;;;3.70;;
69491;SDS011;56692;52.016;4.356;2023-04-09T08:16:53;5.57;;;3.08;;
69491;SDS011;56692;52.016;4.356;2023-04-09T08:19:18;5.93;;;3.27;;
69491;SDS011;56692;52.016;4.356;2023-04-09T08:21:44;7.20;;;4.63;;
69491;SDS011;56692;52.016;4.356;2023-04-09T08:24:13;5.88;;;3.28;;
69491;SDS011;56692;52.016;4.356;2023-04-09T08:26:40;5.60;;;3.53;;
69491;SDS011;56692;52.016;4.356;2023-04-09T08:29:07;6.17;;;3.77;;
69491;SDS011;56692;52.016;4.356;2023-04-09T08:31:34;8.70;;;3.72;;
69491;SDS011;56692;52.016;4.356;2023-04-09T08:34:03;6.72;;;4.00;;
69491;SDS011;56692;52.016;4.356;2023-04-09T08:36:29;6.57;;;3.88;;
69491;SDS011;56692;52.016;4.356;2023-04-09T08:38:56;7.93;;;4.60;;
69491;SDS011;56692;52.016;4.356;2023-04-09T08:41:24;7.60;;;4.33;;
69491;SDS011;56692;52.016;4.356;2023-04-09T08:43:54;7.15;;;4.40;;
69491;SDS011;56692;52.016;4.356;2023-04-09T08:46:21;8.70;;;4.93;;
69491;SDS011;56692;52.016;4.356;2023-04-09T08:48:47;7.65;;;4.15;;
69491;SDS011;56692;52.016;4.356;2023-04-09T08:51:19;8.70;;;4.45;;
69491;SDS011;56692;52.016;4.356;2023-04-09T08:53:46;7.93;;;4.37;;
69491;SDS011;56692;52.016;4.356;2023-04-09T08:56:22;7.88;;;4.32;;
69491;SDS011;56692;52.016;4.356;2023-04-09T08:58:48;9.40;;;5.10;;
69491;SDS011;56692;52.016;4.356;2023-04-09T09:01:21;8.98;;;4.55;;
69491;SDS011;56692;52.016;4.356;2023-04-09T09:03:52;7.23;;;4.03;;
69491;SDS011;56692;52.016;4.356;2023-04-09T09:06:22;9.18;;;5.05;;
69491;SDS011;56692;52.016;4.356;2023-04-09T09:11:34;7.18;;;4.30;;
69491;SDS011;56692;52.016;4.356;2023-04-09T09:14:07;7.50;;;4.40;;
69491;SDS011;56692;52.016;4.356;2023-04-09T09:16:44;8.80;;;5.17;;
69491;SDS011;56692;52.016;4.356;2023-04-09T09:19:28;8.40;;;4.68;;
69491;SDS011;56692;52.016;4.356;2023-04-09T09:24:21;9.88;;;4.93;;
69491;SDS011;56692;52.016;4.356;2023-04-09T09:26:47;10.87;;;6.13;;
69491;SDS011;56692;52.016;4.356;2023-04-09T09:29:12;10.50;;;5.78;;
69491;SDS011;56692;52.016;4.356;2023-04-09T09:31:48;9.83;;;5.70;;
69491;SDS011;56692;52.016;4.356;2023-04-09T09:34:15;8.48;;;4.85;;
69491;SDS011;56692;52.016;4.356;2023-04-09T09:36:42;10.23;;;5.72;;
69491;SDS011;56692;52.016;4.356;2023-04-09T09:39:09;9.02;;;4.88;;
69491;SDS011;56692;52.016;4.356;2023-04-09T09:41:37;8.68;;;5.18;;
69491;SDS011;56692;52.016;4.356;2023-04-09T09:44:03;9.43;;;5.13;;
69491;SDS011;56692;52.016;4.356;2023-04-09T09:46:34;8.70;;;4.90;;
69491;SDS011;56692;52.016;4.356;2023-04-09T09:49:02;9.80;;;6.45;;
69491;SDS011;56692;52.016;4.356;2023-04-09T09:51:28;9.13;;;5.35;;
69491;SDS011;56692;52.016;4.356;2023-04-09T09:53:57;9.13;;;5.80;;
69491;SDS011;56692;52.016;4.356;2023-04-09T09:56:24;8.93;;;4.80;;
69491;SDS011;56692;52.016;4.356;2023-04-09T10:01:46;10.70;;;5.85;;
69491;SDS011;56692;52.016;4.356;2023-04-09T10:04:13;10.27;;;5.70;;
69491;SDS011;56692;52.016;4.356;2023-04-09T10:06:43;9.13;;;5.70;;
69491;SDS011;56692;52.016;4.356;2023-04-09T10:09:09;11.27;;;6.27;;
69491;SDS011;56692;52.016;4.356;2023-04-09T10:11:36;10.50;;;5.90;;
69491;SDS011;56692;52.016;4.356;2023-04-09T10:14:03;10.98;;;6.30;;
69491;SDS011;56692;52.016;4.356;2023-04-09T10:16:29;10.20;;;5.85;;
69491;SDS011;56692;52.016;4.356;2023-04-09T10:18:56;9.87;;;5.87;;
69491;SDS011;56692;52.016;4.356;2023-04-09T10:24:18;12.00;;;6.30;;
69491;SDS011;56692;52.016;4.356;2023-04-09T10:26:44;12.10;;;6.35;;
69491;SDS011;56692;52.016;4.356;2023-04-09T10:29:11;10.98;;;6.63;;
69491;SDS011;56692;52.016;4.356;2023-04-09T10:31:50;10.80;;;6.47;;
69491;SDS011;56692;52.016;4.356;2023-04-09T10:34:18;9.20;;;5.50;;
69491;SDS011;56692;52.016;4.356;2023-04-09T10:36:50;11.30;;;7.20;;
69491;SDS011;56692;52.016;4.356;2023-04-09T10:39:17;11.70;;;5.93;;
69491;SDS011;56692;52.016;4.356;2023-04-09T10:41:43;11.63;;;6.50;;
69491;SDS011;56692;52.016;4.356;2023-04-09T10:44:22;12.00;;;6.63;;
69491;SDS011;56692;52.016;4.356;2023-04-09T10:46:51;11.10;;;6.40;;
69491;SDS011;56692;52.016;4.356;2023-04-09T10:49:19;12.35;;;6.93;;
69491;SDS011;56692;52.016;4.356;2023-04-09T10:52:05;11.18;;;6.07;;
69491;SDS011;56692;52.016;4.356;2023-04-09T10:59:52;11.50;;;6.68;;
69491;SDS011;56692;52.016;4.356;2023-04-09T11:08:12;13.95;;;7.60;;
69491;SDS011;56692;52.016;4.356;2023-04-09T11:10:38;11.53;;;7.13;;
69491;SDS011;56692;52.016;4.356;2023-04-09T11:13:15;11.48;;;7.13;;
69491;SDS011;56692;52.016;4.356;2023-04-09T11:15:42;13.02;;;7.28;;
69491;SDS011;56692;52.016;4.356;2023-04-09T11:18:12;11.07;;;7.15;;
69491;SDS011;56692;52.016;4.356;2023-04-09T11:20:40;11.88;;;6.90;;
69491;SDS011;56692;52.016;4.356;2023-04-09T11:23:06;13.07;;;7.77;;
69491;SDS011;56692;52.016;4.356;2023-04-09T11:25:32;11.45;;;6.43;;
69491;SDS011;56692;52.016;4.356;2023-04-09T11:27:59;12.43;;;7.68;;
69491;SDS011;56692;52.016;4.356;2023-04-09T11:30:27;12.50;;;7.55;;
69491;SDS011;56692;52.016;4.356;2023-04-09T11:32:53;13.43;;;8.50;;
69491;SDS011;56692;52.016;4.356;2023-04-09T11:35:19;13.13;;;8.67;;
69491;SDS011;56692;52.016;4.356;2023-04-09T11:37:46;13.83;;;7.93;;
69491;SDS011;56692;52.016;4.356;2023-04-09T11:40:20;11.90;;;7.60;;
69491;SDS011;56692;52.016;4.356;2023-04-09T11:42:49;12.93;;;8.30;;
69491;SDS011;56692;52.016;4.356;2023-04-09T11:45:19;13.65;;;8.13;;
69491;SDS011;56692;52.016;4.356;2023-04-09T11:47:46;12.27;;;7.70;;
69491;SDS011;56692;52.016;4.356;2023-04-09T11:50:13;13.60;;;8.17;;
69491;SDS011;56692;52.016;4.356;2023-04-09T11:52:40;13.60;;;8.35;;
69491;SDS011;56692;52.016;4.356;2023-04-09T11:55:07;12.20;;;8.10;;
69491;SDS011;56692;52.016;4.356;2023-04-09T11:57:38;13.20;;;8.32;;
69491;SDS011;56692;52.016;4.356;2023-04-09T12:00:05;12.63;;;8.63;;
69491;SDS011;56692;52.016;4.356;2023-04-09T12:02:33;12.20;;;7.83;;
69491;SDS011;56692;52.016;4.356;2023-04-09T12:05:04;12.30;;;7.78;;
69491;SDS011;56692;52.016;4.356;2023-04-09T12:07:34;12.32;;;6.57;;
69491;SDS011;56692;52.016;4.356;2023-04-09T12:10:08;12.82;;;8.45;;
69491;SDS011;56692;52.016;4.356;2023-04-09T12:12:44;13.43;;;7.60;;
69491;SDS011;56692;52.016;4.356;2023-04-09T12:17:46;14.15;;;8.18;;
69491;SDS011;56692;52.016;4.356;2023-04-09T12:20:13;13.02;;;8.25;;
69491;SDS011;56692;52.016;4.356;2023-04-09T12:22:38;13.87;;;8.30;;
69491;SDS011;56692;52.016;4.356;2023-04-09T12:25:05;12.77;;;7.65;;
69491;SDS011;56692;52.016;4.356;2023-04-09T12:27:32;12.82;;;7.82;;
69491;SDS011;56692;52.016;4.356;2023-04-09T12:29:58;12.17;;;7.80;;
69491;SDS011;56692;52.016;4.356;2023-04-09T12:32:23;13.83;;;7.97;;
69491;SDS011;56692;52.016;4.356;2023-04-09T12:34:49;14.32;;;8.27;;
69491;SDS011;56692;52.016;4.356;2023-04-09T12:37:15;11.67;;;7.47;;
69491;SDS011;56692;52.016;4.356;2023-04-09T12:39:41;12.65;;;8.20;;
69491;SDS011;56692;52.016;4.356;2023-04-09T12:42:07;12.97;;;7.97;;
69491;SDS011;56692;52.016;4.356;2023-04-09T12:44:32;11.60;;;7.45;;
69491;SDS011;56692;52.016;4.356;2023-04-09T12:46:58;11.97;;;7.93;;
69491;SDS011;56692;52.016;4.356;2023-04-09T12:49:24;13.65;;;8.60;;
69491;SDS011;56692;52.016;4.356;2023-04-09T12:51:50;14.17;;;8.60;;
69491;SDS011;56692;52.016;4.356;2023-04-09T12:54:16;13.13;;;7.60;;
69491;SDS011;56692;52.016;4.356;2023-04-09T12:56:41;12.10;;;7.40;;
69491;SDS011;56692;52.016;4.356;2023-04-09T12:59:07;10.97;;;7.30;;
69491;SDS011;56692;52.016;4.356;2023-04-09T13:01:33;13.55;;;7.75;;
69491;SDS011;56692;52.016;4.356;2023-04-09T13:03:58;11.57;;;7.87;;
69491;SDS011;56692;52.016;4.356;2023-04-09T13:06:24;11.20;;;6.78;;
69491;SDS011;56692;52.016;4.356;2023-04-09T13:08:50;11.80;;;6.50;;
69491;SDS011;56692;52.016;4.356;2023-04-09T13:11:19;11.73;;;7.17;;
69491;SDS011;56692;52.016;4.356;2023-04-09T13:13:45;12.25;;;7.75;;
69491;SDS011;56692;52.016;4.356;2023-04-09T13:16:11;10.03;;;6.90;;
69491;SDS011;56692;52.016;4.356;2023-04-09T13:18:37;12.27;;;7.97;;
69491;SDS011;56692;52.016;4.356;2023-04-09T13:21:02;10.43;;;6.57;;
69491;SDS011;56692;52.016;4.356;2023-04-09T13:23:28;12.33;;;7.67;;
69491;SDS011;56692;52.016;4.356;2023-04-09T13:25:54;10.82;;;7.45;;
69491;SDS011;56692;52.016;4.356;2023-04-09T13:28:20;10.48;;;6.60;;
69491;SDS011;56692;52.016;4.356;2023-04-09T13:30:46;11.33;;;6.53;;
69491;SDS011;56692;52.016;4.356;2023-04-09T13:33:12;11.80;;;7.20;;
69491;SDS011;56692;52.016;4.356;2023-04-09T13:35:37;10.60;;;6.93;;
69491;SDS011;56692;52.016;4.356;2023-04-09T13:38:03;13.05;;;7.65;;
69491;SDS011;56692;52.016;4.356;2023-04-09T13:40:29;11.30;;;7.37;;
69491;SDS011;56692;52.016;4.356;2023-04-09T13:42:55;12.18;;;7.97;;
69491;SDS011;56692;52.016;4.356;2023-04-09T13:45:20;11.80;;;7.50;;
69491;SDS011;56692;52.016;4.356;2023-04-09T13:47:47;11.00;;;7.43;;
69491;SDS011;56692;52.016;4.356;2023-04-09T13:50:14;11.70;;;7.68;;
69491;SDS011;56692;52.016;4.356;2023-04-09T13:52:40;11.10;;;6.85;;
69491;SDS011;56692;52.016;4.356;2023-04-09T13:55:06;12.13;;;6.73;;
69491;SDS011;56692;52.016;4.356;2023-04-09T13:57:33;12.07;;;7.30;;
69491;SDS011;56692;52.016;4.356;2023-04-09T13:59:58;10.80;;;7.40;;
69491;SDS011;56692;52.016;4.356;2023-04-09T14:02:28;10.37;;;6.40;;
69491;SDS011;56692;52.016;4.356;2023-04-09T14:04:53;11.07;;;6.93;;
69491;SDS011;56692;52.016;4.356;2023-04-09T14:07:19;11.57;;;6.83;;
69491;SDS011;56692;52.016;4.356;2023-04-09T14:09:45;11.90;;;7.43;;
69491;SDS011;56692;52.016;4.356;2023-04-09T14:12:11;10.93;;;6.82;;
69491;SDS011;56692;52.016;4.356;2023-04-09T14:14:37;10.50;;;7.13;;
69491;SDS011;56692;52.016;4.356;2023-04-09T14:17:02;11.05;;;7.07;;
69491;SDS011;56692;52.016;4.356;2023-04-09T14:19:28;11.20;;;7.07;;
69491;SDS011;56692;52.016;4.356;2023-04-09T14:21:54;11.27;;;6.80;;
69491;SDS011;56692;52.016;4.356;2023-04-09T14:24:20;11.30;;;6.80;;
69491;SDS011;56692;52.016;4.356;2023-04-09T14:26:47;11.82;;;7.95;;
69491;SDS011;56692;52.016;4.356;2023-04-09T14:29:13;11.17;;;7.07;;
69491;SDS011;56692;52.016;4.356;2023-04-09T14:31:41;10.88;;;6.55;;
69491;SDS011;56692;52.016;4.356;2023-04-09T14:34:06;11.38;;;7.03;;
69491;SDS011;56692;52.016;4.356;2023-04-09T14:36:32;10.37;;;6.47;;
69491;SDS011;56692;52.016;4.356;2023-04-09T14:38:58;11.30;;;7.05;;
69491;SDS011;56692;52.016;4.356;2023-04-09T14:41:24;11.37;;;6.73;;
69491;SDS011;56692;52.016;4.356;2023-04-09T14:43:50;9.70;;;6.30;;
69491;SDS011;56692;52.016;4.356;2023-04-09T14:46:15;9.32;;;6.45;;
69491;SDS011;56692;52.016;4.356;2023-04-09T14:48:41;10.93;;;7.00;;
69491;SDS011;56692;52.016;4.356;2023-04-09T14:51:10;10.73;;;6.75;;
69491;SDS011;56692;52.016;4.356;2023-04-09T14:53:36;8.67;;;6.07;;
69491;SDS011;56692;52.016;4.356;2023-04-09T14:56:02;9.95;;;6.03;;
69491;SDS011;56692;52.016;4.356;2023-04-09T14:58:27;9.55;;;6.43;;
69491;SDS011;56692;52.016;4.356;2023-04-09T15:00:53;9.47;;;6.67;;
69491;SDS011;56692;52.016;4.356;2023-04-09T15:03:20;9.70;;;6.47;;
69491;SDS011;56692;52.016;4.356;2023-04-09T15:05:46;10.15;;;7.00;;
69491;SDS011;56692;52.016;4.356;2023-04-09T15:08:12;10.63;;;6.20;;
69491;SDS011;56692;52.016;4.356;2023-04-09T15:10:38;11.13;;;7.37;;
69491;SDS011;56692;52.016;4.356;2023-04-09T15:13:03;10.15;;;6.47;;
69491;SDS011;56692;52.016;4.356;2023-04-09T15:15:29;9.98;;;6.15;;
69491;SDS011;56692;52.016;4.356;2023-04-09T15:17:56;8.73;;;5.57;;